sensor_id;sensor_type;location;lat;lon;timestamp;P1;durP1;ratioP1;P2;durP2;ratioP2
37379;SDS011;23252;-33.992;18.480;2023-07-20T00:01:33;5.20;;;1.00;;
37379;SDS011;23252;-33.992;18.480;2023-07-20T00:03:59;6.88;;;1.10;;
37379;SDS011;23252;-33.992;18.480;2023-07-20T00:06:26;6.50;;;1.05;;
37379;SDS011;23252;-33.992;18.480;2023-07-20T00:08:53;9.63;;;1.20;;
37379;SDS011;23252;-33.992;18.480;2023-07-20T00:11:20;8.02;;;1.10;;
37379;SDS011;23252;-33.992;18.480;2023-07-20T00:13:50;5.72;;;1.00;;
37379;SDS011;23252;-33.992;18.480;2023-07-20T00:16:17;10.88;;;1.02;;
37379;SDS011;23252;-33.992;18.480;2023-07-20T00:18:43;7.07;;;0.80;;
37379;SDS011;23252;-33.992;18.480;2023-07-20T00:21:10;8.35;;;1.30;;
37379;SDS011;23252;-33.992;18.480;2023-07-20T00:23:37;9.75;;;1.67;;
37379;SDS011;23252;-33.992;18.480;2023-07-20T00:26:03;6.35;;;1.17;;
37379;SDS011;23252;-33.992;18.480;2023-07-20T00:28:30;7.30;;;1.25;;
37379;SDS011;23252;-33.992;18.480;2023-07-20T00:30:58;7.63;;;0.80;;
37379;SDS011;23252;-33.992;18.480;2023-07-20T00:33:26;4.95;;;1.20;;
37379;SDS011;23252;-33.992;18.480;2023-07-20T00:35:52;5.55;;;1.02;;
37379;SDS011;23252;-33.992;18.480;2023-07-20T00:38:19;11.45;;;1.67;;
37379;SDS011;23252;-33.992;18.480;2023-07-20T00:40:46;6.93;;;0.82;;
37379;SDS011;23252;-33.992;18.480;2023-07-20T00:43:13;7.50;;;1.05;;
37379;SDS011;23252;-33.992;18.480;2023-07-20T00:45:40;5.18;;;0.88;;
37379;SDS011;23252;-33.992;18.480;2023-07-20T00:48:07;3.70;;;0.70;;
37379;SDS011;23252;-33.992;18.480;2023-07-20T00:50:34;6.50;;;0.70;;
37379;SDS011;23252;-33.992;18.480;2023-07-20T00:53:01;7.10;;;1.13;;
37379;SDS011;23252;-33.992;18.480;2023-07-20T00:55:32;7.75;;;1.20;;
37379;SDS011;23252;-33.992;18.480;2023-07-20T00:57:59;7.07;;;1.27;;
37379;SDS011;23252;-33.992;18.480;2023-07-20T01:00:26;2.17;;;0.70;;
37379;SDS011;23252;-33.992;18.480;2023-07-20T01:02:53;5.85;;;0.82;;
37379;SDS011;23252;-33.992;18.480;2023-07-20T01:05:19;11.67;;;1.13;;
37379;SDS011;23252;-33.992;18.480;2023-07-20T01:07:52;3.92;;;0.88;;
37379;SDS011;23252;-33.992;18.480;2023-07-20T01:10:32;7.43;;;1.20;;
37379;SDS011;23252;-33.992;18.480;2023-07-20T01:13:06;8.63;;;0.93;;
37379;SDS011;23252;-33.992;18.480;2023-07-20T01:15:35;7.43;;;1.10;;
37379;SDS011;23252;-33.992;18.480;2023-07-20T01:18:01;13.38;;;1.30;;
37379;SDS011;23252;-33.992;18.480;2023-07-20T01:20:30;5.22;;;0.95;;
37379;SDS011;23252;-33.992;18.480;2023-07-20T01:23:01;7.35;;;0.95;;
37379;SDS011;23252;-33.992;18.480;2023-07-20T01:33:06;7.53;;;1.17;;
37379;SDS011;23252;-33.992;18.480;2023-07-20T01:35:34;8.30;;;1.30;;
37379;SDS011;23252;-33.992;18.480;2023-07-20T01:38:03;4.85;;;0.80;;
37379;SDS011;23252;-33.992;18.480;2023-07-20T01:40:30;6.45;;;0.75;;
37379;SDS011;23252;-33.992;18.480;2023-07-20T01:42:57;4.88;;;1.00;;
37379;SDS011;23252;-33.992;18.480;2023-07-20T01:45:23;5.47;;;1.20;;
37379;SDS011;23252;-33.992;18.480;2023-07-20T01:47:51;8.95;;;1.02;;
37379;SDS011;23252;-33.992;18.480;2023-07-20T01:50:17;7.13;;;0.80;;
37379;SDS011;23252;-33.992;18.480;2023-07-20T01:52:44;6.07;;;0.98;;
37379;SDS011;23252;-33.992;18.480;2023-07-20T01:55:10;8.32;;;1.83;;
37379;SDS011;23252;-33.992;18.480;2023-07-20T01:57:37;7.68;;;1.20;;
37379;SDS011;23252;-33.992;18.480;2023-07-20T02:00:03;8.98;;;1.27;;
37379;SDS011;23252;-33.992;18.480;2023-07-20T02:02:30;7.10;;;1.05;;
37379;SDS011;23252;-33.992;18.480;2023-07-20T02:04:57;10.52;;;1.10;;
37379;SDS011;23252;-33.992;18.480;2023-07-20T02:07:23;12.95;;;1.40;;
37379;SDS011;23252;-33.992;18.480;2023-07-20T02:09:50;4.90;;;0.75;;
37379;SDS011;23252;-33.992;18.480;2023-07-20T02:12:16;6.43;;;0.97;;
37379;SDS011;23252;-33.992;18.480;2023-07-20T02:14:43;8.63;;;1.10;;
37379;SDS011;23252;-33.992;18.480;2023-07-20T02:17:10;6.68;;;1.05;;
37379;SDS011;23252;-33.992;18.480;2023-07-20T02:19:37;5.88;;;0.90;;
37379;SDS011;23252;-33.992;18.480;2023-07-20T02:22:03;7.13;;;1.20;;
37379;SDS011;23252;-33.992;18.480;2023-07-20T02:24:30;9.93;;;0.95;;
37379;SDS011;23252;-33.992;18.480;2023-07-20T02:26:58;5.97;;;0.85;;
37379;SDS011;23252;-33.992;18.480;2023-07-20T02:29:24;7.47;;;1.27;;
37379;SDS011;23252;-33.992;18.480;2023-07-20T02:31:51;5.80;;;0.95;;
37379;SDS011;23252;-33.992;18.480;2023-07-20T02:34:17;7.53;;;0.98;;
37379;SDS011;23252;-33.992;18.480;2023-07-20T02:36:44;13.13;;;1.30;;
37379;SDS011;23252;-33.992;18.480;2023-07-20T02:39:11;5.93;;;0.70;;
37379;SDS011;23252;-33.992;18.480;2023-07-20T02:41:37;8.65;;;1.35;;
37379;SDS011;23252;-33.992;18.480;2023-07-20T02:44:04;5.15;;;0.80;;
37379;SDS011;23252;-33.992;18.480;2023-07-20T02:46:30;5.38;;;0.65;;
37379;SDS011;23252;-33.992;18.480;2023-07-20T02:48:57;3.15;;;0.70;;
37379;SDS011;23252;-33.992;18.480;2023-07-20T02:51:23;7.47;;;1.10;;
37379;SDS011;23252;-33.992;18.480;2023-07-20T02:53:50;8.55;;;0.80;;
37379;SDS011;23252;-33.992;18.480;2023-07-20T02:56:16;6.03;;;0.85;;
37379;SDS011;23252;-33.992;18.480;2023-07-20T02:58:43;15.40;;;1.35;;
37379;SDS011;23252;-33.992;18.480;2023-07-20T03:03:37;5.78;;;1.80;;
37379;SDS011;23252;-33.992;18.480;2023-07-20T03:06:04;5.33;;;1.50;;
37379;SDS011;23252;-33.992;18.480;2023-07-20T03:08:31;5.30;;;1.00;;
37379;SDS011;23252;-33.992;18.480;2023-07-20T03:10:57;7.05;;;1.88;;
37379;SDS011;23252;-33.992;18.480;2023-07-20T03:13:24;8.45;;;1.40;;
37379;SDS011;23252;-33.992;18.480;2023-07-20T03:15:51;8.48;;;1.58;;
37379;SDS011;23252;-33.992;18.480;2023-07-20T03:18:18;10.80;;;1.20;;
37379;SDS011;23252;-33.992;18.480;2023-07-20T03:20:45;6.80;;;0.98;;
37379;SDS011;23252;-33.992;18.480;2023-07-20T03:23:11;11.57;;;1.30;;
37379;SDS011;23252;-33.992;18.480;2023-07-20T03:25:38;5.93;;;1.08;;
37379;SDS011;23252;-33.992;18.480;2023-07-20T03:28:04;7.45;;;1.63;;
37379;SDS011;23252;-33.992;18.480;2023-07-20T03:30:31;15.50;;;1.85;;
37379;SDS011;23252;-33.992;18.480;2023-07-20T03:32:58;7.80;;;1.20;;
37379;SDS011;23252;-33.992;18.480;2023-07-20T03:35:24;5.50;;;0.93;;
37379;SDS011;23252;-33.992;18.480;2023-07-20T03:37:51;5.72;;;0.90;;
37379;SDS011;23252;-33.992;18.480;2023-07-20T03:40:17;8.55;;;0.90;;
37379;SDS011;23252;-33.992;18.480;2023-07-20T03:42:44;4.63;;;0.60;;
37379;SDS011;23252;-33.992;18.480;2023-07-20T03:45:10;5.75;;;0.70;;
37379;SDS011;23252;-33.992;18.480;2023-07-20T03:47:37;7.55;;;0.98;;
37379;SDS011;23252;-33.992;18.480;2023-07-20T03:50:04;9.00;;;1.13;;
37379;SDS011;23252;-33.992;18.480;2023-07-20T03:52:31;4.85;;;1.10;;
37379;SDS011;23252;-33.992;18.480;2023-07-20T03:54:57;8.23;;;1.50;;
37379;SDS011;23252;-33.992;18.480;2023-07-20T03:57:24;5.65;;;0.80;;
37379;SDS011;23252;-33.992;18.480;2023-07-20T03:59:50;7.30;;;0.90;;
37379;SDS011;23252;-33.992;18.480;2023-07-20T04:02:17;5.65;;;1.48;;
37379;SDS011;23252;-33.992;18.480;2023-07-20T04:04:43;4.68;;;1.15;;
37379;SDS011;23252;-33.992;18.480;2023-07-20T04:07:10;6.70;;;0.70;;
37379;SDS011;23252;-33.992;18.480;2023-07-20T04:09:36;13.25;;;1.05;;
37379;SDS011;23252;-33.992;18.480;2023-07-20T04:12:03;8.02;;;1.10;;
37379;SDS011;23252;-33.992;18.480;2023-07-20T04:14:30;7.82;;;1.45;;
37379;SDS011;23252;-33.992;18.480;2023-07-20T04:16:56;8.68;;;1.10;;
37379;SDS011;23252;-33.992;18.480;2023-07-20T04:19:22;8.20;;;1.33;;
37379;SDS011;23252;-33.992;18.480;2023-07-20T04:21:49;3.78;;;0.82;;
37379;SDS011;23252;-33.992;18.480;2023-07-20T04:24:15;9.45;;;1.23;;
37379;SDS011;23252;-33.992;18.480;2023-07-20T04:26:42;7.82;;;1.00;;
37379;SDS011;23252;-33.992;18.480;2023-07-20T04:29:08;11.40;;;1.50;;
37379;SDS011;23252;-33.992;18.480;2023-07-20T04:31:35;6.45;;;1.17;;
37379;SDS011;23252;-33.992;18.480;2023-07-20T04:34:01;12.75;;;1.38;;
37379;SDS011;23252;-33.992;18.480;2023-07-20T04:36:28;7.47;;;1.00;;
37379;SDS011;23252;-33.992;18.480;2023-07-20T04:39:06;6.00;;;1.27;;
37379;SDS011;23252;-33.992;18.480;2023-07-20T04:41:33;9.02;;;1.35;;
37379;SDS011;23252;-33.992;18.480;2023-07-20T04:44:00;12.13;;;1.47;;
37379;SDS011;23252;-33.992;18.480;2023-07-20T04:46:26;9.05;;;1.40;;
37379;SDS011;23252;-33.992;18.480;2023-07-20T04:48:53;10.07;;;1.42;;
37379;SDS011;23252;-33.992;18.480;2023-07-20T04:51:19;9.70;;;1.77;;
37379;SDS011;23252;-33.992;18.480;2023-07-20T04:53:49;5.80;;;1.43;;
37379;SDS011;23252;-33.992;18.480;2023-07-20T04:56:28;5.47;;;1.67;;
37379;SDS011;23252;-33.992;18.480;2023-07-20T04:59:20;20.02;;;1.70;;
37379;SDS011;23252;-33.992;18.480;2023-07-20T05:01:52;5.60;;;1.13;;
37379;SDS011;23252;-33.992;18.480;2023-07-20T05:04:19;9.68;;;1.20;;
37379;SDS011;23252;-33.992;18.480;2023-07-20T05:06:48;11.40;;;1.20;;
37379;SDS011;23252;-33.992;18.480;2023-07-20T05:09:15;7.78;;;1.65;;
37379;SDS011;23252;-33.992;18.480;2023-07-20T05:11:41;5.13;;;1.10;;
37379;SDS011;23252;-33.992;18.480;2023-07-20T05:14:10;10.35;;;1.20;;
37379;SDS011;23252;-33.992;18.480;2023-07-20T05:16:36;9.32;;;1.75;;
37379;SDS011;23252;-33.992;18.480;2023-07-20T05:19:03;10.40;;;2.00;;
37379;SDS011;23252;-33.992;18.480;2023-07-20T05:21:29;10.57;;;1.63;;
37379;SDS011;23252;-33.992;18.480;2023-07-20T05:23:56;8.82;;;1.10;;
37379;SDS011;23252;-33.992;18.480;2023-07-20T05:26:22;9.55;;;1.48;;
37379;SDS011;23252;-33.992;18.480;2023-07-20T05:28:49;10.90;;;1.95;;
37379;SDS011;23252;-33.992;18.480;2023-07-20T05:31:15;7.07;;;1.77;;
37379;SDS011;23252;-33.992;18.480;2023-07-20T05:33:42;8.32;;;1.25;;
37379;SDS011;23252;-33.992;18.480;2023-07-20T05:36:08;14.60;;;1.90;;
37379;SDS011;23252;-33.992;18.480;2023-07-20T05:38:35;5.30;;;1.23;;
37379;SDS011;23252;-33.992;18.480;2023-07-20T05:41:01;6.50;;;1.38;;
37379;SDS011;23252;-33.992;18.480;2023-07-20T05:43:29;10.00;;;1.20;;
37379;SDS011;23252;-33.992;18.480;2023-07-20T05:45:56;7.68;;;1.52;;
37379;SDS011;23252;-33.992;18.480;2023-07-20T05:48:23;9.70;;;1.83;;
37379;SDS011;23252;-33.992;18.480;2023-07-20T05:50:50;10.30;;;1.58;;
37379;SDS011;23252;-33.992;18.480;2023-07-20T05:53:16;7.17;;;1.50;;
37379;SDS011;23252;-33.992;18.480;2023-07-20T05:55:43;7.43;;;1.60;;
37379;SDS011;23252;-33.992;18.480;2023-07-20T05:58:09;7.80;;;1.60;;
37379;SDS011;23252;-33.992;18.480;2023-07-20T06:00:36;9.95;;;2.38;;
37379;SDS011;23252;-33.992;18.480;2023-07-20T06:03:02;10.33;;;1.60;;
37379;SDS011;23252;-33.992;18.480;2023-07-20T06:05:29;10.20;;;1.63;;
37379;SDS011;23252;-33.992;18.480;2023-07-20T06:07:56;12.40;;;1.67;;
37379;SDS011;23252;-33.992;18.480;2023-07-20T06:10:23;7.03;;;1.40;;
37379;SDS011;23252;-33.992;18.480;2023-07-20T06:12:50;10.67;;;1.47;;
37379;SDS011;23252;-33.992;18.480;2023-07-20T06:15:31;11.85;;;1.90;;
37379;SDS011;23252;-33.992;18.480;2023-07-20T06:18:00;11.20;;;1.70;;
37379;SDS011;23252;-33.992;18.480;2023-07-20T06:20:27;4.90;;;1.50;;
37379;SDS011;23252;-33.992;18.480;2023-07-20T06:22:53;10.90;;;1.85;;
37379;SDS011;23252;-33.992;18.480;2023-07-20T06:25:20;11.32;;;1.95;;
37379;SDS011;23252;-33.992;18.480;2023-07-20T06:27:46;15.38;;;1.65;;
37379;SDS011;23252;-33.992;18.480;2023-07-20T06:30:14;14.20;;;1.67;;
37379;SDS011;23252;-33.992;18.480;2023-07-20T06:32:41;16.92;;;1.92;;
37379;SDS011;23252;-33.992;18.480;2023-07-20T06:35:07;11.35;;;1.95;;
37379;SDS011;23252;-33.992;18.480;2023-07-20T06:37:34;16.40;;;2.05;;
37379;SDS011;23252;-33.992;18.480;2023-07-20T06:40:02;10.13;;;1.60;;
37379;SDS011;23252;-33.992;18.480;2023-07-20T06:42:30;14.23;;;1.48;;
37379;SDS011;23252;-33.992;18.480;2023-07-20T06:44:56;13.80;;;1.75;;
37379;SDS011;23252;-33.992;18.480;2023-07-20T06:47:23;11.57;;;1.73;;
37379;SDS011;23252;-33.992;18.480;2023-07-20T06:49:50;11.02;;;1.38;;
37379;SDS011;23252;-33.992;18.480;2023-07-20T06:52:17;11.95;;;1.33;;
37379;SDS011;23252;-33.992;18.480;2023-07-20T06:54:44;15.77;;;2.15;;
37379;SDS011;23252;-33.992;18.480;2023-07-20T06:57:10;12.20;;;2.08;;
37379;SDS011;23252;-33.992;18.480;2023-07-20T06:59:37;11.23;;;1.88;;
37379;SDS011;23252;-33.992;18.480;2023-07-20T07:02:03;6.97;;;1.40;;
37379;SDS011;23252;-33.992;18.480;2023-07-20T07:04:31;12.27;;;1.92;;
37379;SDS011;23252;-33.992;18.480;2023-07-20T07:06:58;10.75;;;1.88;;
37379;SDS011;23252;-33.992;18.480;2023-07-20T07:09:25;11.07;;;1.65;;
37379;SDS011;23252;-33.992;18.480;2023-07-20T07:11:52;9.98;;;1.45;;
37379;SDS011;23252;-33.992;18.480;2023-07-20T07:14:19;9.23;;;1.50;;
37379;SDS011;23252;-33.992;18.480;2023-07-20T07:16:47;6.78;;;1.45;;
37379;SDS011;23252;-33.992;18.480;2023-07-20T07:19:13;9.38;;;1.60;;
37379;SDS011;23252;-33.992;18.480;2023-07-20T07:21:40;14.23;;;1.90;;
37379;SDS011;23252;-33.992;18.480;2023-07-20T07:24:07;15.15;;;2.20;;
37379;SDS011;23252;-33.992;18.480;2023-07-20T07:26:35;12.18;;;2.00;;
37379;SDS011;23252;-33.992;18.480;2023-07-20T07:31:29;8.95;;;1.80;;
37379;SDS011;23252;-33.992;18.480;2023-07-20T07:33:56;11.75;;;1.83;;
37379;SDS011;23252;-33.992;18.480;2023-07-20T07:36:23;8.02;;;1.50;;
37379;SDS011;23252;-33.992;18.480;2023-07-20T07:38:50;8.32;;;1.80;;
37379;SDS011;23252;-33.992;18.480;2023-07-20T07:41:16;7.63;;;2.00;;
37379;SDS011;23252;-33.992;18.480;2023-07-20T07:43:43;14.88;;;1.73;;
37379;SDS011;23252;-33.992;18.480;2023-07-20T07:46:09;12.77;;;2.10;;
37379;SDS011;23252;-33.992;18.480;2023-07-20T07:48:36;7.45;;;1.65;;
37379;SDS011;23252;-33.992;18.480;2023-07-20T07:51:02;6.82;;;1.85;;
37379;SDS011;23252;-33.992;18.480;2023-07-20T07:53:29;11.93;;;1.63;;
37379;SDS011;23252;-33.992;18.480;2023-07-20T07:55:56;4.32;;;1.00;;
37379;SDS011;23252;-33.992;18.480;2023-07-20T07:58:22;8.23;;;1.40;;
37379;SDS011;23252;-33.992;18.480;2023-07-20T08:00:49;8.90;;;1.63;;
37379;SDS011;23252;-33.992;18.480;2023-07-20T08:03:16;9.97;;;1.40;;
37379;SDS011;23252;-33.992;18.480;2023-07-20T08:05:42;10.50;;;2.17;;
37379;SDS011;23252;-33.992;18.480;2023-07-20T08:08:09;7.60;;;1.33;;
37379;SDS011;23252;-33.992;18.480;2023-07-20T08:10:35;14.10;;;2.42;;
37379;SDS011;23252;-33.992;18.480;2023-07-20T08:13:01;6.10;;;1.48;;
37379;SDS011;23252;-33.992;18.480;2023-07-20T08:15:28;7.23;;;2.10;;
37379;SDS011;23252;-33.992;18.480;2023-07-20T08:17:55;8.40;;;1.65;;
37379;SDS011;23252;-33.992;18.480;2023-07-20T08:20:22;8.60;;;1.58;;
37379;SDS011;23252;-33.992;18.480;2023-07-20T08:22:52;7.78;;;1.70;;
37379;SDS011;23252;-33.992;18.480;2023-07-20T08:25:20;8.10;;;1.63;;
37379;SDS011;23252;-33.992;18.480;2023-07-20T08:27:46;5.60;;;1.65;;
37379;SDS011;23252;-33.992;18.480;2023-07-20T08:30:13;8.57;;;1.83;;
37379;SDS011;23252;-33.992;18.480;2023-07-20T08:32:40;8.73;;;1.53;;
37379;SDS011;23252;-33.992;18.480;2023-07-20T08:35:06;3.55;;;1.45;;
37379;SDS011;23252;-33.992;18.480;2023-07-20T08:37:33;7.45;;;1.80;;
37379;SDS011;23252;-33.992;18.480;2023-07-20T08:39:59;7.53;;;1.85;;
37379;SDS011;23252;-33.992;18.480;2023-07-20T08:42:26;7.72;;;1.80;;
37379;SDS011;23252;-33.992;18.480;2023-07-20T08:44:53;7.93;;;2.20;;
37379;SDS011;23252;-33.992;18.480;2023-07-20T08:47:21;7.68;;;1.70;;
37379;SDS011;23252;-33.992;18.480;2023-07-20T08:49:49;18.42;;;1.95;;
37379;SDS011;23252;-33.992;18.480;2023-07-20T08:52:17;11.30;;;2.13;;
37379;SDS011;23252;-33.992;18.480;2023-07-20T08:54:44;10.95;;;2.03;;
37379;SDS011;23252;-33.992;18.480;2023-07-20T08:57:10;10.68;;;1.70;;
37379;SDS011;23252;-33.992;18.480;2023-07-20T08:59:40;5.82;;;2.20;;
37379;SDS011;23252;-33.992;18.480;2023-07-20T09:02:07;9.20;;;2.08;;
37379;SDS011;23252;-33.992;18.480;2023-07-20T09:04:40;9.88;;;2.53;;
37379;SDS011;23252;-33.992;18.480;2023-07-20T09:07:09;12.18;;;2.33;;
37379;SDS011;23252;-33.992;18.480;2023-07-20T09:09:40;11.98;;;2.25;;
37379;SDS011;23252;-33.992;18.480;2023-07-20T09:12:16;9.32;;;1.92;;
37379;SDS011;23252;-33.992;18.480;2023-07-20T09:14:44;9.48;;;2.10;;
37379;SDS011;23252;-33.992;18.480;2023-07-20T09:17:14;9.68;;;2.42;;
37379;SDS011;23252;-33.992;18.480;2023-07-20T09:19:49;11.30;;;2.25;;
37379;SDS011;23252;-33.992;18.480;2023-07-20T09:22:16;9.10;;;2.03;;
37379;SDS011;23252;-33.992;18.480;2023-07-20T09:24:43;9.27;;;1.70;;
37379;SDS011;23252;-33.992;18.480;2023-07-20T09:29:47;11.05;;;1.83;;
37379;SDS011;23252;-33.992;18.480;2023-07-20T09:32:20;10.48;;;1.77;;
37379;SDS011;23252;-33.992;18.480;2023-07-20T09:34:49;8.82;;;1.63;;
37379;SDS011;23252;-33.992;18.480;2023-07-20T09:37:23;7.38;;;1.50;;
37379;SDS011;23252;-33.992;18.480;2023-07-20T09:39:52;8.13;;;1.40;;
37379;SDS011;23252;-33.992;18.480;2023-07-20T09:42:21;6.50;;;1.75;;
37379;SDS011;23252;-33.992;18.480;2023-07-20T09:44:50;4.50;;;1.63;;
37379;SDS011;23252;-33.992;18.480;2023-07-20T09:49:54;4.10;;;2.03;;
37379;SDS011;23252;-33.992;18.480;2023-07-20T09:52:28;8.02;;;2.60;;
37379;SDS011;23252;-33.992;18.480;2023-07-20T09:54:55;5.47;;;1.98;;
37379;SDS011;23252;-33.992;18.480;2023-07-20T09:57:23;7.38;;;2.50;;
37379;SDS011;23252;-33.992;18.480;2023-07-20T09:59:50;8.77;;;2.90;;
37379;SDS011;23252;-33.992;18.480;2023-07-20T10:02:20;11.38;;;3.20;;
37379;SDS011;23252;-33.992;18.480;2023-07-20T10:04:52;3.60;;;3.05;;
37379;SDS011;23252;-33.992;18.480;2023-07-20T10:07:19;9.73;;;3.58;;
37379;SDS011;23252;-33.992;18.480;2023-07-20T12:19:06;8.73;;;7.63;;
37379;SDS011;23252;-33.992;18.480;2023-07-20T12:21:38;7.45;;;6.80;;
37379;SDS011;23252;-33.992;18.480;2023-07-20T12:24:06;7.72;;;7.03;;
37379;SDS011;23252;-33.992;18.480;2023-07-20T12:26:37;7.70;;;7.10;;
37379;SDS011;23252;-33.992;18.480;2023-07-20T12:29:03;8.90;;;8.10;;
37379;SDS011;23252;-33.992;18.480;2023-07-20T12:31:30;8.38;;;7.43;;
37379;SDS011;23252;-33.992;18.480;2023-07-20T12:33:59;9.10;;;8.20;;
37379;SDS011;23252;-33.992;18.480;2023-07-20T12:36:26;10.15;;;8.43;;
37379;SDS011;23252;-33.992;18.480;2023-07-20T12:38:52;8.47;;;7.77;;
37379;SDS011;23252;-33.992;18.480;2023-07-20T12:41:19;8.73;;;8.03;;
37379;SDS011;23252;-33.992;18.480;2023-07-20T12:43:45;9.55;;;8.57;;
37379;SDS011;23252;-33.992;18.480;2023-07-20T12:46:12;9.03;;;8.23;;
37379;SDS011;23252;-33.992;18.480;2023-07-20T12:48:39;8.20;;;7.50;;
37379;SDS011;23252;-33.992;18.480;2023-07-20T12:51:11;9.13;;;8.40;;
37379;SDS011;23252;-33.992;18.480;2023-07-20T12:53:38;9.10;;;7.68;;
37379;SDS011;23252;-33.992;18.480;2023-07-20T12:56:04;9.40;;;7.90;;
37379;SDS011;23252;-33.992;18.480;2023-07-20T12:58:31;7.57;;;7.07;;
37379;SDS011;23252;-33.992;18.480;2023-07-20T13:00:58;7.93;;;7.20;;
37379;SDS011;23252;-33.992;18.480;2023-07-20T13:03:24;6.82;;;6.00;;
37379;SDS011;23252;-33.992;18.480;2023-07-20T13:05:51;6.68;;;6.18;;
37379;SDS011;23252;-33.992;18.480;2023-07-20T13:08:18;7.63;;;6.40;;
37379;SDS011;23252;-33.992;18.480;2023-07-20T13:10:45;7.95;;;6.82;;
37379;SDS011;23252;-33.992;18.480;2023-07-20T13:13:11;7.68;;;6.53;;
37379;SDS011;23252;-33.992;18.480;2023-07-20T13:15:41;8.37;;;7.17;;
37379;SDS011;23252;-33.992;18.480;2023-07-20T13:18:09;6.97;;;6.38;;
37379;SDS011;23252;-33.992;18.480;2023-07-20T13:20:36;7.90;;;7.20;;
37379;SDS011;23252;-33.992;18.480;2023-07-20T13:23:05;7.70;;;6.82;;
37379;SDS011;23252;-33.992;18.480;2023-07-20T13:25:32;7.50;;;6.20;;
37379;SDS011;23252;-33.992;18.480;2023-07-20T13:27:59;6.70;;;6.10;;
37379;SDS011;23252;-33.992;18.480;2023-07-20T13:30:25;5.70;;;5.30;;
37379;SDS011;23252;-33.992;18.480;2023-07-20T13:32:52;11.17;;;8.43;;
37379;SDS011;23252;-33.992;18.480;2023-07-20T13:35:21;8.00;;;7.07;;
37379;SDS011;23252;-33.992;18.480;2023-07-20T13:37:48;12.90;;;8.43;;
37379;SDS011;23252;-33.992;18.480;2023-07-20T13:40:15;9.70;;;7.03;;
37379;SDS011;23252;-33.992;18.480;2023-07-20T13:42:43;9.77;;;8.80;;
37379;SDS011;23252;-33.992;18.480;2023-07-20T13:45:10;7.00;;;6.30;;
37379;SDS011;23252;-33.992;18.480;2023-07-20T13:47:37;7.37;;;6.40;;
37379;SDS011;23252;-33.992;18.480;2023-07-20T13:50:04;10.27;;;7.97;;
37379;SDS011;23252;-33.992;18.480;2023-07-20T13:52:30;12.73;;;9.40;;
37379;SDS011;23252;-33.992;18.480;2023-07-20T13:54:57;7.33;;;6.40;;
37379;SDS011;23252;-33.992;18.480;2023-07-20T13:57:23;9.68;;;7.45;;
37379;SDS011;23252;-33.992;18.480;2023-07-20T13:59:50;33.43;;;24.50;;
37379;SDS011;23252;-33.992;18.480;2023-07-20T14:02:16;21.95;;;13.95;;
37379;SDS011;23252;-33.992;18.480;2023-07-20T14:04:43;13.80;;;7.43;;
37379;SDS011;23252;-33.992;18.480;2023-07-20T14:07:10;19.42;;;11.93;;
37379;SDS011;23252;-33.992;18.480;2023-07-20T14:09:36;15.70;;;12.10;;
37379;SDS011;23252;-33.992;18.480;2023-07-20T14:12:03;10.30;;;6.43;;
37379;SDS011;23252;-33.992;18.480;2023-07-20T14:14:30;14.57;;;10.13;;
37379;SDS011;23252;-33.992;18.480;2023-07-20T14:16:56;11.02;;;8.18;;
37379;SDS011;23252;-33.992;18.480;2023-07-20T14:19:23;12.07;;;8.33;;
37379;SDS011;23252;-33.992;18.480;2023-07-20T14:21:49;7.23;;;5.73;;
37379;SDS011;23252;-33.992;18.480;2023-07-20T14:24:16;10.00;;;5.43;;
37379;SDS011;23252;-33.992;18.480;2023-07-20T14:26:42;7.33;;;5.07;;
37379;SDS011;23252;-33.992;18.480;2023-07-20T14:29:09;7.43;;;5.10;;
37379;SDS011;23252;-33.992;18.480;2023-07-20T14:31:35;5.60;;;5.10;;
37379;SDS011;23252;-33.992;18.480;2023-07-20T14:34:02;6.50;;;5.00;;
37379;SDS011;23252;-33.992;18.480;2023-07-20T14:36:28;5.78;;;5.13;;
37379;SDS011;23252;-33.992;18.480;2023-07-20T14:38:55;6.78;;;5.30;;
37379;SDS011;23252;-33.992;18.480;2023-07-20T14:41:21;6.20;;;5.30;;
37379;SDS011;23252;-33.992;18.480;2023-07-20T14:43:48;7.60;;;5.40;;
37379;SDS011;23252;-33.992;18.480;2023-07-20T14:46:14;8.02;;;5.68;;
37379;SDS011;23252;-33.992;18.480;2023-07-20T14:48:41;6.60;;;5.10;;
37379;SDS011;23252;-33.992;18.480;2023-07-20T14:51:07;5.60;;;5.20;;
37379;SDS011;23252;-33.992;18.480;2023-07-20T14:53:34;6.30;;;5.70;;
37379;SDS011;23252;-33.992;18.480;2023-07-20T14:56:03;6.40;;;5.88;;
37379;SDS011;23252;-33.992;18.480;2023-07-20T14:58:31;6.60;;;6.00;;
37379;SDS011;23252;-33.992;18.480;2023-07-20T15:03:23;9.45;;;5.43;;
37379;SDS011;23252;-33.992;18.480;2023-07-20T15:05:53;6.07;;;5.57;;
37379;SDS011;23252;-33.992;18.480;2023-07-20T15:08:25;6.80;;;5.90;;
37379;SDS011;23252;-33.992;18.480;2023-07-20T15:10:55;7.35;;;5.75;;
37379;SDS011;23252;-33.992;18.480;2023-07-20T15:13:22;6.25;;;5.20;;
37379;SDS011;23252;-33.992;18.480;2023-07-20T15:15:49;6.97;;;5.17;;
37379;SDS011;23252;-33.992;18.480;2023-07-20T15:18:15;5.68;;;5.15;;
37379;SDS011;23252;-33.992;18.480;2023-07-20T15:20:42;5.90;;;5.50;;
37379;SDS011;23252;-33.992;18.480;2023-07-20T15:23:13;9.05;;;5.40;;
37379;SDS011;23252;-33.992;18.480;2023-07-20T15:25:40;11.82;;;5.30;;
37379;SDS011;23252;-33.992;18.480;2023-07-20T15:28:07;8.15;;;5.53;;
37379;SDS011;23252;-33.992;18.480;2023-07-20T15:30:36;11.68;;;5.28;;
37379;SDS011;23252;-33.992;18.480;2023-07-20T15:33:03;5.22;;;4.72;;
37379;SDS011;23252;-33.992;18.480;2023-07-20T15:35:35;5.25;;;4.60;;
37379;SDS011;23252;-33.992;18.480;2023-07-20T15:38:05;8.63;;;4.75;;
37379;SDS011;23252;-33.992;18.480;2023-07-20T15:40:32;7.33;;;4.77;;
37379;SDS011;23252;-33.992;18.480;2023-07-20T15:42:59;6.00;;;4.53;;
37379;SDS011;23252;-33.992;18.480;2023-07-20T15:45:27;9.07;;;4.80;;
37379;SDS011;23252;-33.992;18.480;2023-07-20T15:47:55;5.95;;;4.53;;
37379;SDS011;23252;-33.992;18.480;2023-07-20T15:50:22;10.00;;;4.38;;
37379;SDS011;23252;-33.992;18.480;2023-07-20T15:52:48;5.60;;;4.47;;
37379;SDS011;23252;-33.992;18.480;2023-07-20T15:55:15;6.63;;;4.40;;
37379;SDS011;23252;-33.992;18.480;2023-07-20T15:57:41;8.27;;;4.32;;
37379;SDS011;23252;-33.992;18.480;2023-07-20T16:00:08;7.72;;;4.28;;
37379;SDS011;23252;-33.992;18.480;2023-07-20T16:02:36;5.50;;;4.40;;
37379;SDS011;23252;-33.992;18.480;2023-07-20T16:05:02;7.15;;;3.88;;
37379;SDS011;23252;-33.992;18.480;2023-07-20T16:07:29;7.05;;;4.30;;
37379;SDS011;23252;-33.992;18.480;2023-07-20T16:09:56;7.28;;;4.05;;
37379;SDS011;23252;-33.992;18.480;2023-07-20T16:12:26;5.47;;;4.22;;
37379;SDS011;23252;-33.992;18.480;2023-07-20T16:14:56;5.22;;;4.07;;
37379;SDS011;23252;-33.992;18.480;2023-07-20T16:17:22;9.15;;;4.10;;
37379;SDS011;23252;-33.992;18.480;2023-07-20T16:19:49;10.30;;;4.50;;
37379;SDS011;23252;-33.992;18.480;2023-07-20T16:22:15;6.25;;;4.13;;
37379;SDS011;23252;-33.992;18.480;2023-07-20T16:24:45;7.23;;;3.97;;
37379;SDS011;23252;-33.992;18.480;2023-07-20T16:27:14;12.00;;;4.47;;
37379;SDS011;23252;-33.992;18.480;2023-07-20T16:29:41;6.82;;;3.80;;
37379;SDS011;23252;-33.992;18.480;2023-07-20T16:32:08;12.60;;;3.83;;
37379;SDS011;23252;-33.992;18.480;2023-07-20T16:34:34;10.25;;;3.58;;
37379;SDS011;23252;-33.992;18.480;2023-07-20T16:37:01;10.32;;;3.47;;
37379;SDS011;23252;-33.992;18.480;2023-07-20T16:39:31;7.90;;;3.72;;
37379;SDS011;23252;-33.992;18.480;2023-07-20T16:41:57;6.43;;;2.80;;
37379;SDS011;23252;-33.992;18.480;2023-07-20T16:44:24;7.27;;;2.80;;
37379;SDS011;23252;-33.992;18.480;2023-07-20T16:46:50;7.00;;;2.78;;
37379;SDS011;23252;-33.992;18.480;2023-07-20T16:49:17;6.23;;;2.57;;